sensor_id;sensor_type;location;lat;lon;timestamp;P1;durP1;ratioP1;P2;durP2;ratioP2
2123;SDS011;1068;52.460;13.528;2023-08-06T00:00:30;5.80;;;5.37;;
2123;SDS011;1068;52.460;13.528;2023-08-06T00:02:57;5.77;;;5.20;;
2123;SDS011;1068;52.460;13.528;2023-08-06T00:05:26;5.43;;;5.07;;
2123;SDS011;1068;52.460;13.528;2023-08-06T00:07:52;8.27;;;5.50;;
2123;SDS011;1068;52.460;13.528;2023-08-06T00:10:19;6.17;;;5.77;;
2123;SDS011;1068;52.460;13.528;2023-08-06T00:12:46;6.20;;;5.70;;
2123;SDS011;1068;52.460;13.528;2023-08-06T00:15:13;5.93;;;5.43;;
2123;SDS011;1068;52.460;13.528;2023-08-06T00:17:40;6.47;;;5.97;;
2123;SDS011;1068;52.460;13.528;2023-08-06T00:20:07;7.17;;;6.47;;
2123;SDS011;1068;52.460;13.528;2023-08-06T00:22:36;6.63;;;5.50;;
2123;SDS011;1068;52.460;13.528;2023-08-06T00:25:04;5.90;;;5.40;;
2123;SDS011;1068;52.460;13.528;2023-08-06T00:27:31;5.63;;;5.23;;
2123;SDS011;1068;52.460;13.528;2023-08-06T00:29:58;5.80;;;5.40;;
2123;SDS011;1068;52.460;13.528;2023-08-06T00:32:25;6.37;;;5.87;;
2123;SDS011;1068;52.460;13.528;2023-08-06T00:34:52;6.73;;;6.13;;
2123;SDS011;1068;52.460;13.528;2023-08-06T00:37:19;6.50;;;5.87;;
2123;SDS011;1068;52.460;13.528;2023-08-06T00:39:47;6.43;;;5.63;;
2123;SDS011;1068;52.460;13.528;2023-08-06T00:42:14;5.80;;;5.30;;
2123;SDS011;1068;52.460;13.528;2023-08-06T00:44:45;6.50;;;6.00;;
2123;SDS011;1068;52.460;13.528;2023-08-06T00:47:12;7.77;;;5.53;;
2123;SDS011;1068;52.460;13.528;2023-08-06T00:49:39;6.50;;;5.90;;
2123;SDS011;1068;52.460;13.528;2023-08-06T00:52:06;6.27;;;5.67;;
2123;SDS011;1068;52.460;13.528;2023-08-06T00:54:34;6.43;;;5.93;;
2123;SDS011;1068;52.460;13.528;2023-08-06T00:57:03;6.70;;;6.10;;
2123;SDS011;1068;52.460;13.528;2023-08-06T00:59:30;5.53;;;5.23;;
2123;SDS011;1068;52.460;13.528;2023-08-06T01:01:57;6.67;;;6.17;;
2123;SDS011;1068;52.460;13.528;2023-08-06T01:04:24;5.43;;;5.07;;
2123;SDS011;1068;52.460;13.528;2023-08-06T01:06:52;5.97;;;5.47;;
2123;SDS011;1068;52.460;13.528;2023-08-06T01:09:27;5.83;;;5.43;;
2123;SDS011;1068;52.460;13.528;2023-08-06T01:11:57;4.93;;;4.63;;
2123;SDS011;1068;52.460;13.528;2023-08-06T01:14:28;4.93;;;4.63;;
2123;SDS011;1068;52.460;13.528;2023-08-06T01:16:57;4.73;;;4.33;;
2123;SDS011;1068;52.460;13.528;2023-08-06T01:19:25;5.33;;;5.03;;
2123;SDS011;1068;52.460;13.528;2023-08-06T01:21:53;4.73;;;4.43;;
2123;SDS011;1068;52.460;13.528;2023-08-06T01:24:20;4.73;;;4.33;;
2123;SDS011;1068;52.460;13.528;2023-08-06T01:26:48;5.90;;;5.40;;
2123;SDS011;1068;52.460;13.528;2023-08-06T01:29:19;4.93;;;4.63;;
2123;SDS011;1068;52.460;13.528;2023-08-06T01:31:50;4.97;;;4.10;;
2123;SDS011;1068;52.460;13.528;2023-08-06T01:34:21;4.43;;;4.13;;
2123;SDS011;1068;52.460;13.528;2023-08-06T01:36:48;4.50;;;4.20;;
2123;SDS011;1068;52.460;13.528;2023-08-06T01:39:16;4.70;;;4.30;;
2123;SDS011;1068;52.460;13.528;2023-08-06T01:41:45;6.13;;;4.83;;
2123;SDS011;1068;52.460;13.528;2023-08-06T01:44:12;4.80;;;4.50;;
2123;SDS011;1068;52.460;13.528;2023-08-06T01:46:39;4.40;;;4.10;;
2123;SDS011;1068;52.460;13.528;2023-08-06T01:49:06;4.20;;;3.90;;
2123;SDS011;1068;52.460;13.528;2023-08-06T01:51:33;4.63;;;4.33;;
2123;SDS011;1068;52.460;13.528;2023-08-06T01:54:00;4.63;;;4.33;;
2123;SDS011;1068;52.460;13.528;2023-08-06T01:56:29;4.80;;;3.67;;
2123;SDS011;1068;52.460;13.528;2023-08-06T01:58:56;3.93;;;3.63;;
2123;SDS011;1068;52.460;13.528;2023-08-06T02:01:23;4.67;;;4.33;;
2123;SDS011;1068;52.460;13.528;2023-08-06T02:03:50;3.70;;;3.50;;
2123;SDS011;1068;52.460;13.528;2023-08-06T02:06:17;3.80;;;3.50;;
2123;SDS011;1068;52.460;13.528;2023-08-06T02:08:44;3.57;;;3.37;;
2123;SDS011;1068;52.460;13.528;2023-08-06T02:11:11;3.50;;;3.30;;
2123;SDS011;1068;52.460;13.528;2023-08-06T02:13:39;4.47;;;4.07;;
2123;SDS011;1068;52.460;13.528;2023-08-06T02:16:06;3.80;;;3.50;;
2123;SDS011;1068;52.460;13.528;2023-08-06T02:18:34;3.90;;;3.60;;
2123;SDS011;1068;52.460;13.528;2023-08-06T02:21:01;3.90;;;3.70;;
2123;SDS011;1068;52.460;13.528;2023-08-06T02:23:28;4.07;;;3.70;;
2123;SDS011;1068;52.460;13.528;2023-08-06T02:25:58;3.97;;;3.67;;
2123;SDS011;1068;52.460;13.528;2023-08-06T02:28:25;3.50;;;3.30;;
2123;SDS011;1068;52.460;13.528;2023-08-06T02:30:53;3.63;;;3.43;;
2123;SDS011;1068;52.460;13.528;2023-08-06T02:33:20;3.13;;;2.83;;
2123;SDS011;1068;52.460;13.528;2023-08-06T02:35:47;4.40;;;3.60;;
2123;SDS011;1068;52.460;13.528;2023-08-06T02:38:14;3.83;;;3.53;;
2123;SDS011;1068;52.460;13.528;2023-08-06T02:40:44;3.90;;;3.70;;
2123;SDS011;1068;52.460;13.528;2023-08-06T02:43:11;3.70;;;3.33;;
2123;SDS011;1068;52.460;13.528;2023-08-06T02:45:38;3.23;;;3.03;;
2123;SDS011;1068;52.460;13.528;2023-08-06T02:48:06;3.73;;;3.53;;
2123;SDS011;1068;52.460;13.528;2023-08-06T02:50:37;3.20;;;3.00;;
2123;SDS011;1068;52.460;13.528;2023-08-06T02:53:04;3.70;;;3.50;;
2123;SDS011;1068;52.460;13.528;2023-08-06T02:55:31;3.70;;;3.50;;
2123;SDS011;1068;52.460;13.528;2023-08-06T02:57:59;3.43;;;3.20;;
2123;SDS011;1068;52.460;13.528;2023-08-06T03:00:26;4.20;;;4.00;;
2123;SDS011;1068;52.460;13.528;2023-08-06T03:02:53;3.77;;;3.57;;
2123;SDS011;1068;52.460;13.528;2023-08-06T03:05:21;4.53;;;4.13;;
2123;SDS011;1068;52.460;13.528;2023-08-06T03:07:48;4.60;;;4.27;;
2123;SDS011;1068;52.460;13.528;2023-08-06T03:10:15;4.27;;;3.90;;
2123;SDS011;1068;52.460;13.528;2023-08-06T03:12:42;4.53;;;4.13;;
2123;SDS011;1068;52.460;13.528;2023-08-06T03:15:09;3.50;;;3.30;;
2123;SDS011;1068;52.460;13.528;2023-08-06T03:17:36;4.63;;;4.27;;
2123;SDS011;1068;52.460;13.528;2023-08-06T03:20:04;4.60;;;4.30;;
2123;SDS011;1068;52.460;13.528;2023-08-06T03:22:32;3.67;;;3.47;;
2123;SDS011;1068;52.460;13.528;2023-08-06T03:24:59;3.67;;;3.47;;
2123;SDS011;1068;52.460;13.528;2023-08-06T03:27:26;5.80;;;3.80;;
2123;SDS011;1068;52.460;13.528;2023-08-06T03:29:53;3.90;;;3.60;;
2123;SDS011;1068;52.460;13.528;2023-08-06T03:32:20;3.63;;;3.43;;
2123;SDS011;1068;52.460;13.528;2023-08-06T03:34:47;4.43;;;4.07;;
2123;SDS011;1068;52.460;13.528;2023-08-06T03:37:14;3.73;;;3.43;;
2123;SDS011;1068;52.460;13.528;2023-08-06T03:39:42;3.70;;;3.50;;
2123;SDS011;1068;52.460;13.528;2023-08-06T03:42:09;3.20;;;3.03;;
2123;SDS011;1068;52.460;13.528;2023-08-06T03:44:36;3.10;;;2.90;;
2123;SDS011;1068;52.460;13.528;2023-08-06T03:47:04;3.23;;;3.13;;
2123;SDS011;1068;52.460;13.528;2023-08-06T03:49:31;3.70;;;3.50;;
2123;SDS011;1068;52.460;13.528;2023-08-06T03:51:58;3.50;;;3.20;;
2123;SDS011;1068;52.460;13.528;2023-08-06T03:54:25;3.70;;;3.40;;
2123;SDS011;1068;52.460;13.528;2023-08-06T03:56:53;3.50;;;3.20;;
2123;SDS011;1068;52.460;13.528;2023-08-06T03:59:20;3.50;;;3.07;;
2123;SDS011;1068;52.460;13.528;2023-08-06T04:01:47;3.37;;;3.07;;
2123;SDS011;1068;52.460;13.528;2023-08-06T04:04:14;3.70;;;3.40;;
2123;SDS011;1068;52.460;13.528;2023-08-06T04:06:42;3.50;;;3.30;;
2123;SDS011;1068;52.460;13.528;2023-08-06T04:09:09;3.97;;;3.63;;
2123;SDS011;1068;52.460;13.528;2023-08-06T04:11:36;4.13;;;3.90;;
2123;SDS011;1068;52.460;13.528;2023-08-06T04:14:04;3.33;;;3.13;;
2123;SDS011;1068;52.460;13.528;2023-08-06T04:16:31;3.60;;;3.40;;
2123;SDS011;1068;52.460;13.528;2023-08-06T04:18:58;3.40;;;3.20;;
2123;SDS011;1068;52.460;13.528;2023-08-06T04:21:24;3.33;;;3.17;;
2123;SDS011;1068;52.460;13.528;2023-08-06T04:23:53;3.37;;;3.13;;
2123;SDS011;1068;52.460;13.528;2023-08-06T04:26:22;4.03;;;3.83;;
2123;SDS011;1068;52.460;13.528;2023-08-06T04:28:49;3.80;;;3.60;;
2123;SDS011;1068;52.460;13.528;2023-08-06T04:31:17;4.23;;;4.00;;
2123;SDS011;1068;52.460;13.528;2023-08-06T04:33:44;4.23;;;4.03;;
2123;SDS011;1068;52.460;13.528;2023-08-06T04:36:11;3.80;;;3.50;;
2123;SDS011;1068;52.460;13.528;2023-08-06T04:38:38;4.30;;;3.97;;
2123;SDS011;1068;52.460;13.528;2023-08-06T04:41:06;4.03;;;3.80;;
2123;SDS011;1068;52.460;13.528;2023-08-06T04:43:33;3.90;;;3.70;;
2123;SDS011;1068;52.460;13.528;2023-08-06T04:46:00;3.90;;;3.60;;
2123;SDS011;1068;52.460;13.528;2023-08-06T04:48:28;3.60;;;3.37;;
2123;SDS011;1068;52.460;13.528;2023-08-06T04:50:55;3.80;;;3.60;;
2123;SDS011;1068;52.460;13.528;2023-08-06T04:53:22;4.67;;;4.33;;
2123;SDS011;1068;52.460;13.528;2023-08-06T04:55:49;3.97;;;3.77;;
2123;SDS011;1068;52.460;13.528;2023-08-06T04:58:16;3.73;;;3.40;;
2123;SDS011;1068;52.460;13.528;2023-08-06T05:00:43;3.17;;;2.97;;
2123;SDS011;1068;52.460;13.528;2023-08-06T05:03:09;3.77;;;3.50;;
2123;SDS011;1068;52.460;13.528;2023-08-06T05:05:40;3.27;;;3.00;;
2123;SDS011;1068;52.460;13.528;2023-08-06T05:08:07;5.60;;;4.03;;
2123;SDS011;1068;52.460;13.528;2023-08-06T05:10:34;3.57;;;3.37;;
2123;SDS011;1068;52.460;13.528;2023-08-06T05:13:01;3.87;;;3.63;;
2123;SDS011;1068;52.460;13.528;2023-08-06T05:15:28;3.60;;;3.40;;
2123;SDS011;1068;52.460;13.528;2023-08-06T05:17:57;3.53;;;3.33;;
2123;SDS011;1068;52.460;13.528;2023-08-06T05:20:23;3.80;;;3.50;;
2123;SDS011;1068;52.460;13.528;2023-08-06T05:22:53;4.00;;;3.80;;
2123;SDS011;1068;52.460;13.528;2023-08-06T05:25:19;3.93;;;3.63;;
2123;SDS011;1068;52.460;13.528;2023-08-06T05:27:46;5.00;;;3.47;;
2123;SDS011;1068;52.460;13.528;2023-08-06T05:30:13;3.43;;;3.17;;
2123;SDS011;1068;52.460;13.528;2023-08-06T05:32:40;3.60;;;3.30;;
2123;SDS011;1068;52.460;13.528;2023-08-06T05:35:07;3.90;;;3.70;;
2123;SDS011;1068;52.460;13.528;2023-08-06T05:37:34;3.73;;;3.40;;
2123;SDS011;1068;52.460;13.528;2023-08-06T05:40:02;3.87;;;3.67;;
2123;SDS011;1068;52.460;13.528;2023-08-06T05:42:29;4.13;;;3.83;;
2123;SDS011;1068;52.460;13.528;2023-08-06T05:44:56;3.97;;;3.67;;
2123;SDS011;1068;52.460;13.528;2023-08-06T05:47:23;4.10;;;3.80;;
2123;SDS011;1068;52.460;13.528;2023-08-06T05:49:50;4.03;;;3.83;;
2123;SDS011;1068;52.460;13.528;2023-08-06T05:52:17;4.23;;;3.93;;
2123;SDS011;1068;52.460;13.528;2023-08-06T05:54:44;4.50;;;4.20;;
2123;SDS011;1068;52.460;13.528;2023-08-06T05:57:12;4.63;;;4.43;;
2123;SDS011;1068;52.460;13.528;2023-08-06T05:59:39;4.80;;;4.40;;
2123;SDS011;1068;52.460;13.528;2023-08-06T06:02:06;4.50;;;4.13;;
2123;SDS011;1068;52.460;13.528;2023-08-06T06:04:33;4.50;;;4.27;;
2123;SDS011;1068;52.460;13.528;2023-08-06T06:07:00;4.07;;;3.77;;
2123;SDS011;1068;52.460;13.528;2023-08-06T06:09:27;5.10;;;4.80;;
2123;SDS011;1068;52.460;13.528;2023-08-06T06:11:54;7.10;;;6.40;;
2123;SDS011;1068;52.460;13.528;2023-08-06T06:14:22;5.37;;;4.97;;
2123;SDS011;1068;52.460;13.528;2023-08-06T06:16:49;4.07;;;3.80;;
2123;SDS011;1068;52.460;13.528;2023-08-06T06:19:18;5.63;;;5.20;;
2123;SDS011;1068;52.460;13.528;2023-08-06T06:21:44;4.50;;;4.20;;
2123;SDS011;1068;52.460;13.528;2023-08-06T06:24:11;4.27;;;3.97;;
2123;SDS011;1068;52.460;13.528;2023-08-06T06:26:38;3.87;;;3.67;;
2123;SDS011;1068;52.460;13.528;2023-08-06T06:29:05;4.27;;;3.93;;
2123;SDS011;1068;52.460;13.528;2023-08-06T06:31:33;4.40;;;4.10;;
2123;SDS011;1068;52.460;13.528;2023-08-06T06:34:00;4.63;;;4.23;;
2123;SDS011;1068;52.460;13.528;2023-08-06T06:36:27;4.83;;;4.40;;
2123;SDS011;1068;52.460;13.528;2023-08-06T06:38:54;3.97;;;3.60;;
2123;SDS011;1068;52.460;13.528;2023-08-06T06:41:21;3.87;;;3.57;;
2123;SDS011;1068;52.460;13.528;2023-08-06T06:43:48;4.30;;;4.10;;
2123;SDS011;1068;52.460;13.528;2023-08-06T06:46:15;3.90;;;3.60;;
2123;SDS011;1068;52.460;13.528;2023-08-06T06:48:43;3.67;;;3.47;;
2123;SDS011;1068;52.460;13.528;2023-08-06T06:51:12;3.73;;;3.53;;
2123;SDS011;1068;52.460;13.528;2023-08-06T06:53:39;3.60;;;3.40;;
2123;SDS011;1068;52.460;13.528;2023-08-06T06:56:08;3.70;;;3.40;;
2123;SDS011;1068;52.460;13.528;2023-08-06T06:58:34;5.03;;;3.33;;
2123;SDS011;1068;52.460;13.528;2023-08-06T07:01:03;3.77;;;3.57;;
2123;SDS011;1068;52.460;13.528;2023-08-06T07:03:30;3.90;;;3.70;;
2123;SDS011;1068;52.460;13.528;2023-08-06T07:05:58;4.27;;;4.07;;
2123;SDS011;1068;52.460;13.528;2023-08-06T07:08:25;5.03;;;4.73;;
2123;SDS011;1068;52.460;13.528;2023-08-06T07:10:59;4.83;;;4.53;;
2123;SDS011;1068;52.460;13.528;2023-08-06T07:13:26;3.93;;;3.63;;
2123;SDS011;1068;52.460;13.528;2023-08-06T07:15:53;5.20;;;4.77;;
2123;SDS011;1068;52.460;13.528;2023-08-06T07:18:20;5.00;;;4.50;;
2123;SDS011;1068;52.460;13.528;2023-08-06T07:20:48;4.83;;;4.53;;
2123;SDS011;1068;52.460;13.528;2023-08-06T07:23:16;5.27;;;4.87;;
2123;SDS011;1068;52.460;13.528;2023-08-06T07:25:43;5.03;;;4.73;;
2123;SDS011;1068;52.460;13.528;2023-08-06T07:28:10;5.50;;;5.10;;
2123;SDS011;1068;52.460;13.528;2023-08-06T07:30:38;5.13;;;4.70;;
2123;SDS011;1068;52.460;13.528;2023-08-06T07:33:05;5.37;;;5.10;;
2123;SDS011;1068;52.460;13.528;2023-08-06T07:35:32;6.10;;;5.67;;
2123;SDS011;1068;52.460;13.528;2023-08-06T07:37:59;5.73;;;5.33;;
2123;SDS011;1068;52.460;13.528;2023-08-06T07:40:27;5.77;;;5.37;;
2123;SDS011;1068;52.460;13.528;2023-08-06T07:42:54;6.23;;;5.83;;
2123;SDS011;1068;52.460;13.528;2023-08-06T07:45:21;6.27;;;5.77;;
2123;SDS011;1068;52.460;13.528;2023-08-06T07:47:48;5.03;;;4.73;;
2123;SDS011;1068;52.460;13.528;2023-08-06T07:50:16;6.10;;;5.70;;
2123;SDS011;1068;52.460;13.528;2023-08-06T07:52:43;6.03;;;5.53;;
2123;SDS011;1068;52.460;13.528;2023-08-06T07:55:10;5.50;;;5.10;;
2123;SDS011;1068;52.460;13.528;2023-08-06T07:57:39;5.63;;;5.23;;
2123;SDS011;1068;52.460;13.528;2023-08-06T08:00:06;5.07;;;4.70;;
2123;SDS011;1068;52.460;13.528;2023-08-06T08:02:35;5.33;;;5.03;;
2123;SDS011;1068;52.460;13.528;2023-08-06T08:05:02;7.17;;;6.67;;
2123;SDS011;1068;52.460;13.528;2023-08-06T08:07:29;5.43;;;5.03;;
2123;SDS011;1068;52.460;13.528;2023-08-06T08:09:56;6.47;;;6.07;;
2123;SDS011;1068;52.460;13.528;2023-08-06T08:12:23;6.17;;;5.87;;
2123;SDS011;1068;52.460;13.528;2023-08-06T08:14:51;5.60;;;5.30;;
2123;SDS011;1068;52.460;13.528;2023-08-06T08:17:18;5.20;;;4.83;;
2123;SDS011;1068;52.460;13.528;2023-08-06T08:19:45;5.70;;;5.30;;
2123;SDS011;1068;52.460;13.528;2023-08-06T08:22:12;6.10;;;5.70;;
2123;SDS011;1068;52.460;13.528;2023-08-06T08:24:39;6.67;;;6.20;;
2123;SDS011;1068;52.460;13.528;2023-08-06T08:27:05;6.37;;;5.87;;
2123;SDS011;1068;52.460;13.528;2023-08-06T08:29:32;5.37;;;4.93;;
2123;SDS011;1068;52.460;13.528;2023-08-06T08:32:02;6.03;;;5.67;;
2123;SDS011;1068;52.460;13.528;2023-08-06T08:34:29;6.70;;;6.20;;
2123;SDS011;1068;52.460;13.528;2023-08-06T08:36:56;6.83;;;6.33;;
2123;SDS011;1068;52.460;13.528;2023-08-06T08:39:23;5.70;;;5.40;;
2123;SDS011;1068;52.460;13.528;2023-08-06T08:41:50;6.10;;;5.60;;
2123;SDS011;1068;52.460;13.528;2023-08-06T08:44:17;7.20;;;6.70;;
2123;SDS011;1068;52.460;13.528;2023-08-06T08:46:44;5.63;;;5.13;;
2123;SDS011;1068;52.460;13.528;2023-08-06T08:49:13;7.17;;;6.63;;
2123;SDS011;1068;52.460;13.528;2023-08-06T08:51:40;7.73;;;7.13;;
2123;SDS011;1068;52.460;13.528;2023-08-06T08:54:08;6.70;;;6.20;;
2123;SDS011;1068;52.460;13.528;2023-08-06T08:56:35;7.50;;;6.83;;
2123;SDS011;1068;52.460;13.528;2023-08-06T08:59:02;7.60;;;7.00;;
2123;SDS011;1068;52.460;13.528;2023-08-06T09:01:29;6.27;;;5.87;;
2123;SDS011;1068;52.460;13.528;2023-08-06T09:03:56;6.10;;;5.60;;
2123;SDS011;1068;52.460;13.528;2023-08-06T09:06:25;7.13;;;6.63;;
2123;SDS011;1068;52.460;13.528;2023-08-06T09:08:56;7.90;;;7.30;;
2123;SDS011;1068;52.460;13.528;2023-08-06T09:11:28;7.00;;;6.50;;
2123;SDS011;1068;52.460;13.528;2023-08-06T09:14:03;6.67;;;6.17;;
2123;SDS011;1068;52.460;13.528;2023-08-06T09:16:32;6.90;;;6.30;;
2123;SDS011;1068;52.460;13.528;2023-08-06T09:19:00;7.90;;;7.00;;
2123;SDS011;1068;52.460;13.528;2023-08-06T09:21:34;7.47;;;6.97;;
2123;SDS011;1068;52.460;13.528;2023-08-06T09:24:07;7.70;;;7.20;;
2123;SDS011;1068;52.460;13.528;2023-08-06T09:26:34;7.40;;;6.93;;
2123;SDS011;1068;52.460;13.528;2023-08-06T09:29:01;7.30;;;6.80;;
2123;SDS011;1068;52.460;13.528;2023-08-06T09:31:32;7.70;;;7.20;;
2123;SDS011;1068;52.460;13.528;2023-08-06T09:33:59;7.77;;;7.17;;
2123;SDS011;1068;52.460;13.528;2023-08-06T09:36:26;6.60;;;6.20;;
2123;SDS011;1068;52.460;13.528;2023-08-06T09:38:55;8.20;;;7.60;;
2123;SDS011;1068;52.460;13.528;2023-08-06T09:41:28;8.77;;;8.17;;
2123;SDS011;1068;52.460;13.528;2023-08-06T09:43:54;8.60;;;7.90;;
2123;SDS011;1068;52.460;13.528;2023-08-06T09:46:21;8.37;;;7.57;;
2123;SDS011;1068;52.460;13.528;2023-08-06T09:48:50;10.23;;;8.60;;
2123;SDS011;1068;52.460;13.528;2023-08-06T09:51:17;8.03;;;7.43;;
2123;SDS011;1068;52.460;13.528;2023-08-06T09:53:43;7.63;;;7.13;;
2123;SDS011;1068;52.460;13.528;2023-08-06T09:56:12;8.20;;;7.60;;
2123;SDS011;1068;52.460;13.528;2023-08-06T09:58:40;8.77;;;8.10;;
2123;SDS011;1068;52.460;13.528;2023-08-06T10:01:06;7.73;;;6.93;;
2123;SDS011;1068;52.460;13.528;2023-08-06T10:03:34;8.60;;;7.90;;
2123;SDS011;1068;52.460;13.528;2023-08-06T10:06:01;8.97;;;8.17;;
2123;SDS011;1068;52.460;13.528;2023-08-06T10:08:31;8.90;;;8.30;;
2123;SDS011;1068;52.460;13.528;2023-08-06T10:10:58;9.33;;;8.50;;
2123;SDS011;1068;52.460;13.528;2023-08-06T10:13:31;8.97;;;8.27;;
2123;SDS011;1068;52.460;13.528;2023-08-06T10:15:59;6.40;;;6.00;;
2123;SDS011;1068;52.460;13.528;2023-08-06T10:18:27;6.57;;;6.07;;
2123;SDS011;1068;52.460;13.528;2023-08-06T10:20:54;4.90;;;4.60;;
2123;SDS011;1068;52.460;13.528;2023-08-06T10:23:21;6.03;;;5.63;;
2123;SDS011;1068;52.460;13.528;2023-08-06T10:25:59;5.60;;;5.30;;
2123;SDS011;1068;52.460;13.528;2023-08-06T10:28:33;5.67;;;5.17;;
2123;SDS011;1068;52.460;13.528;2023-08-06T10:31:01;5.70;;;5.30;;
2123;SDS011;1068;52.460;13.528;2023-08-06T10:33:39;5.53;;;5.20;;
2123;SDS011;1068;52.460;13.528;2023-08-06T10:36:07;3.97;;;3.73;;
2123;SDS011;1068;52.460;13.528;2023-08-06T10:38:35;5.20;;;4.80;;
2123;SDS011;1068;52.460;13.528;2023-08-06T10:41:02;6.30;;;4.00;;
2123;SDS011;1068;52.460;13.528;2023-08-06T10:43:30;4.20;;;3.90;;
2123;SDS011;1068;52.460;13.528;2023-08-06T10:45:58;4.40;;;4.10;;
2123;SDS011;1068;52.460;13.528;2023-08-06T10:48:29;4.27;;;3.87;;
2123;SDS011;1068;52.460;13.528;2023-08-06T10:50:56;3.40;;;3.20;;
2123;SDS011;1068;52.460;13.528;2023-08-06T10:53:23;3.57;;;3.37;;
2123;SDS011;1068;52.460;13.528;2023-08-06T10:55:50;3.27;;;3.07;;
2123;SDS011;1068;52.460;13.528;2023-08-06T10:58:17;3.60;;;3.30;;
2123;SDS011;1068;52.460;13.528;2023-08-06T11:00:44;3.13;;;2.93;;
2123;SDS011;1068;52.460;13.528;2023-08-06T11:03:12;4.00;;;3.80;;
2123;SDS011;1068;52.460;13.528;2023-08-06T11:05:41;3.83;;;3.63;;
2123;SDS011;1068;52.460;13.528;2023-08-06T11:08:08;3.73;;;3.37;;
2123;SDS011;1068;52.460;13.528;2023-08-06T11:10:35;3.50;;;3.30;;
2123;SDS011;1068;52.460;13.528;2023-08-06T11:13:03;3.60;;;3.40;;
2123;SDS011;1068;52.460;13.528;2023-08-06T11:15:32;3.80;;;3.60;;
2123;SDS011;1068;52.460;13.528;2023-08-06T11:17:59;4.20;;;3.90;;
2123;SDS011;1068;52.460;13.528;2023-08-06T11:20:29;7.40;;;4.20;;
2123;SDS011;1068;52.460;13.528;2023-08-06T11:22:55;4.50;;;4.20;;
2123;SDS011;1068;52.460;13.528;2023-08-06T11:25:22;4.40;;;4.10;;
2123;SDS011;1068;52.460;13.528;2023-08-06T11:27:50;4.93;;;4.47;;
2123;SDS011;1068;52.460;13.528;2023-08-06T11:30:17;4.43;;;4.13;;
2123;SDS011;1068;52.460;13.528;2023-08-06T11:32:44;4.70;;;4.40;;
2123;SDS011;1068;52.460;13.528;2023-08-06T11:35:12;4.93;;;4.53;;
2123;SDS011;1068;52.460;13.528;2023-08-06T11:37:43;5.60;;;5.20;;
2123;SDS011;1068;52.460;13.528;2023-08-06T11:40:10;4.83;;;4.53;;
2123;SDS011;1068;52.460;13.528;2023-08-06T11:42:37;5.57;;;5.07;;
2123;SDS011;1068;52.460;13.528;2023-08-06T11:45:04;4.83;;;4.53;;
2123;SDS011;1068;52.460;13.528;2023-08-06T11:47:31;4.90;;;4.50;;
2123;SDS011;1068;52.460;13.528;2023-08-06T11:49:58;4.53;;;4.20;;
2123;SDS011;1068;52.460;13.528;2023-08-06T11:52:25;4.53;;;4.23;;
2123;SDS011;1068;52.460;13.528;2023-08-06T11:55:01;4.40;;;4.17;;
2123;SDS011;1068;52.460;13.528;2023-08-06T11:57:29;4.47;;;4.27;;
2123;SDS011;1068;52.460;13.528;2023-08-06T12:00:01;4.70;;;4.40;;
2123;SDS011;1068;52.460;13.528;2023-08-06T12:02:30;4.60;;;4.20;;
2123;SDS011;1068;52.460;13.528;2023-08-06T12:04:59;4.90;;;4.50;;
2123;SDS011;1068;52.460;13.528;2023-08-06T12:07:29;4.23;;;3.97;;
2123;SDS011;1068;52.460;13.528;2023-08-06T12:09:56;3.83;;;3.63;;
2123;SDS011;1068;52.460;13.528;2023-08-06T12:12:25;4.87;;;4.57;;
2123;SDS011;1068;52.460;13.528;2023-08-06T12:14:52;6.90;;;4.40;;
2123;SDS011;1068;52.460;13.528;2023-08-06T12:17:18;4.90;;;4.60;;
2123;SDS011;1068;52.460;13.528;2023-08-06T12:19:45;4.37;;;4.17;;
2123;SDS011;1068;52.460;13.528;2023-08-06T12:22:13;4.40;;;4.03;;
2123;SDS011;1068;52.460;13.528;2023-08-06T12:24:40;3.80;;;3.60;;
2123;SDS011;1068;52.460;13.528;2023-08-06T12:27:07;4.10;;;3.90;;
2123;SDS011;1068;52.460;13.528;2023-08-06T12:29:36;4.83;;;4.53;;
2123;SDS011;1068;52.460;13.528;2023-08-06T12:32:03;4.90;;;4.60;;
2123;SDS011;1068;52.460;13.528;2023-08-06T12:34:30;5.10;;;4.80;;
2123;SDS011;1068;52.460;13.528;2023-08-06T12:36:57;5.00;;;4.70;;
2123;SDS011;1068;52.460;13.528;2023-08-06T12:39:24;4.40;;;4.20;;
2123;SDS011;1068;52.460;13.528;2023-08-06T12:41:53;5.23;;;4.87;;
2123;SDS011;1068;52.460;13.528;2023-08-06T12:44:20;5.40;;;5.07;;
2123;SDS011;1068;52.460;13.528;2023-08-06T12:46:48;4.77;;;4.47;;
2123;SDS011;1068;52.460;13.528;2023-08-06T12:49:15;4.90;;;4.60;;
2123;SDS011;1068;52.460;13.528;2023-08-06T12:51:42;4.57;;;4.30;;
2123;SDS011;1068;52.460;13.528;2023-08-06T12:54:10;4.73;;;4.27;;
2123;SDS011;1068;52.460;13.528;2023-08-06T12:56:37;5.07;;;4.77;;
2123;SDS011;1068;52.460;13.528;2023-08-06T12:59:04;5.87;;;5.47;;
2123;SDS011;1068;52.460;13.528;2023-08-06T13:01:33;6.60;;;6.10;;
2123;SDS011;1068;52.460;13.528;2023-08-06T13:04:01;6.70;;;6.10;;
2123;SDS011;1068;52.460;13.528;2023-08-06T13:06:28;6.30;;;5.90;;
2123;SDS011;1068;52.460;13.528;2023-08-06T13:08:56;7.03;;;5.93;;
2123;SDS011;1068;52.460;13.528;2023-08-06T13:11:23;5.87;;;5.47;;
2123;SDS011;1068;52.460;13.528;2023-08-06T13:13:50;6.57;;;6.07;;
2123;SDS011;1068;52.460;13.528;2023-08-06T13:16:17;6.03;;;5.53;;
2123;SDS011;1068;52.460;13.528;2023-08-06T13:18:44;6.13;;;5.63;;
2123;SDS011;1068;52.460;13.528;2023-08-06T13:21:12;6.40;;;5.90;;
2123;SDS011;1068;52.460;13.528;2023-08-06T13:23:39;6.33;;;5.80;;
2123;SDS011;1068;52.460;13.528;2023-08-06T13:26:06;6.30;;;5.80;;
2123;SDS011;1068;52.460;13.528;2023-08-06T13:28:33;6.13;;;5.73;;
2123;SDS011;1068;52.460;13.528;2023-08-06T13:31:00;6.00;;;5.53;;
2123;SDS011;1068;52.460;13.528;2023-08-06T13:33:27;6.50;;;6.00;;
2123;SDS011;1068;52.460;13.528;2023-08-06T13:35:54;7.20;;;6.60;;
2123;SDS011;1068;52.460;13.528;2023-08-06T13:38:22;6.70;;;6.20;;
2123;SDS011;1068;52.460;13.528;2023-08-06T13:40:49;6.53;;;5.93;;
2123;SDS011;1068;52.460;13.528;2023-08-06T13:43:16;6.27;;;5.87;;
2123;SDS011;1068;52.460;13.528;2023-08-06T13:45:44;6.87;;;6.37;;
2123;SDS011;1068;52.460;13.528;2023-08-06T13:48:11;6.40;;;6.00;;
2123;SDS011;1068;52.460;13.528;2023-08-06T13:50:37;7.23;;;6.63;;
2123;SDS011;1068;52.460;13.528;2023-08-06T13:53:04;8.13;;;7.60;;
2123;SDS011;1068;52.460;13.528;2023-08-06T13:55:32;7.73;;;7.13;;
2123;SDS011;1068;52.460;13.528;2023-08-06T13:57:59;7.47;;;6.87;;
2123;SDS011;1068;52.460;13.528;2023-08-06T14:00:28;7.27;;;6.67;;
2123;SDS011;1068;52.460;13.528;2023-08-06T14:02:55;7.93;;;7.30;;
2123;SDS011;1068;52.460;13.528;2023-08-06T14:05:22;6.40;;;5.97;;
2123;SDS011;1068;52.460;13.528;2023-08-06T14:07:49;7.13;;;6.67;;
2123;SDS011;1068;52.460;13.528;2023-08-06T14:10:16;7.80;;;7.30;;
2123;SDS011;1068;52.460;13.528;2023-08-06T14:12:44;7.67;;;7.10;;
2123;SDS011;1068;52.460;13.528;2023-08-06T14:15:11;7.80;;;7.20;;
2123;SDS011;1068;52.460;13.528;2023-08-06T14:17:38;7.27;;;6.77;;
2123;SDS011;1068;52.460;13.528;2023-08-06T14:20:05;7.53;;;6.93;;
2123;SDS011;1068;52.460;13.528;2023-08-06T14:22:36;6.73;;;6.23;;
2123;SDS011;1068;52.460;13.528;2023-08-06T14:25:03;6.60;;;6.20;;
2123;SDS011;1068;52.460;13.528;2023-08-06T14:27:31;6.10;;;5.60;;
2123;SDS011;1068;52.460;13.528;2023-08-06T14:29:59;7.40;;;6.70;;
2123;SDS011;1068;52.460;13.528;2023-08-06T14:32:28;7.23;;;6.73;;
2123;SDS011;1068;52.460;13.528;2023-08-06T14:34:55;7.10;;;6.60;;
2123;SDS011;1068;52.460;13.528;2023-08-06T14:37:22;7.60;;;7.00;;
2123;SDS011;1068;52.460;13.528;2023-08-06T14:39:49;6.20;;;5.80;;
2123;SDS011;1068;52.460;13.528;2023-08-06T14:42:16;7.37;;;6.73;;
2123;SDS011;1068;52.460;13.528;2023-08-06T14:44:44;8.00;;;7.30;;
2123;SDS011;1068;52.460;13.528;2023-08-06T14:47:12;6.60;;;6.20;;
2123;SDS011;1068;52.460;13.528;2023-08-06T14:49:39;6.83;;;6.27;;
2123;SDS011;1068;52.460;13.528;2023-08-06T14:52:07;5.13;;;4.73;;
2123;SDS011;1068;52.460;13.528;2023-08-06T14:54:34;4.97;;;4.57;;
2123;SDS011;1068;52.460;13.528;2023-08-06T14:57:00;4.53;;;4.13;;
2123;SDS011;1068;52.460;13.528;2023-08-06T14:59:27;5.30;;;4.90;;
2123;SDS011;1068;52.460;13.528;2023-08-06T15:01:54;5.10;;;4.70;;